Time;durP1;ratioP1;P1;durP2;ratioP2;P2;SDS_P1;SDS_P2;PMS_P1;PMS_P2;Temp;Humidity;BMP_temperature;BMP_pressure;BME280_temperature;BME280_humidity;BME280_pressure;Samples;Min_cycle;Max_cycle;Signal;HPM_P1;HPM_P2
2021/11/14 00:01:38;;;;;;;11.03;7.03;;;10.70;99.90;;;;;;5117013;27;20193;-82
2021/11/14 00:04:06;;;;;;;8.67;6.87;;;10.80;99.90;;;;;;5116045;27;20284;-82
2021/11/14 00:06:35;;;;;;;13.07;6.87;;;10.80;99.90;;;;;;5112078;28;20297;-81
2021/11/14 00:09:02;;;;;;;9.70;6.30;;;10.70;99.90;;;;;;5111946;28;20232;-81
2021/11/14 00:11:29;;;;;;;11.73;6.07;;;10.70;99.90;;;;;;5112246;28;20262;-81
2021/11/14 00:13:58;;;;;;;11.93;6.33;;;10.70;99.90;;;;;;5112100;28;20297;-82
2021/11/14 00:16:27;;;;;;;10.67;5.77;;;10.70;99.90;;;;;;5112283;28;20235;-82
2021/11/14 00:18:54;;;;;;;12.07;6.03;;;10.70;99.90;;;;;;5111430;28;20740;-82
2021/11/14 00:21:25;;;;;;;10.77;5.67;;;10.70;99.90;;;;;;5112007;28;20294;-81
2021/11/14 00:23:54;;;;;;;8.43;5.17;;;10.70;99.90;;;;;;5111825;28;20236;-81
2021/11/14 00:26:23;;;;;;;10.30;5.40;;;10.70;99.90;;;;;;5112011;28;20284;-82
2021/11/14 00:28:50;;;;;;;7.67;5.27;;;10.70;99.90;;;;;;5111984;28;20284;-81
2021/11/14 00:31:31;;;;;;;10.53;5.30;;;10.70;99.90;;;;;;5112461;28;20266;-81
2021/11/14 00:33:58;;;;;;;8.10;5.13;;;10.70;99.90;;;;;;5111821;28;20585;-81
2021/11/14 00:36:28;;;;;;;8.37;5.30;;;10.70;99.90;;;;;;5111970;28;20841;-81
2021/11/14 00:38:57;;;;;;;8.87;5.60;;;10.70;99.90;;;;;;5111360;28;20197;-81
2021/11/14 00:41:26;;;;;;;11.20;5.30;;;10.70;99.90;;;;;;5125436;28;20216;-81
2021/11/14 00:43:53;;;;;;;7.93;5.10;;;10.70;99.90;;;;;;5130812;28;20283;-81
2021/11/14 00:46:21;;;;;;;11.13;5.30;;;10.70;99.90;;;;;;5112119;28;20256;-81
2021/11/14 00:48:48;;;;;;;8.90;5.23;;;10.60;99.90;;;;;;5115600;27;20250;-81
2021/11/14 00:51:19;;;;;;;8.90;5.33;;;10.60;99.90;;;;;;5116607;28;20308;-81
2021/11/14 00:53:46;;;;;;;9.33;5.20;;;10.60;99.90;;;;;;5115988;27;20208;-81
2021/11/14 00:56:15;;;;;;;8.27;5.47;;;10.60;99.90;;;;;;5115882;28;20288;-81
2021/11/14 00:58:42;;;;;;;9.57;4.70;;;10.60;99.90;;;;;;5115433;28;20337;-81
2021/11/14 01:01:08;;;;;;;8.63;4.77;;;10.60;99.90;;;;;;5115331;28;20251;-82
2021/11/14 01:03:35;;;;;;;8.93;5.07;;;10.50;99.90;;;;;;5115508;28;20266;-82
2021/11/14 01:06:02;;;;;;;8.07;5.07;;;10.60;99.90;;;;;;5115261;28;20228;-81
2021/11/14 01:08:29;;;;;;;9.07;5.70;;;10.50;99.90;;;;;;5115799;28;20233;-82
2021/11/14 01:10:58;;;;;;;7.50;5.00;;;10.50;99.90;;;;;;5115416;28;20190;-81
2021/11/14 01:13:27;;;;;;;10.00;5.20;;;10.50;99.90;;;;;;5114946;28;20716;-81
2021/11/14 01:15:55;;;;;;;8.57;5.33;;;10.50;99.90;;;;;;5115783;28;20640;-81
2021/11/14 01:18:22;;;;;;;7.83;6.10;;;10.60;99.90;;;;;;5114929;28;20229;-81
2021/11/14 01:20:52;;;;;;;10.40;6.20;;;10.60;99.90;;;;;;5115996;28;20221;-81
2021/11/14 01:23:19;;;;;;;10.17;6.10;;;10.50;99.90;;;;;;5115264;28;20241;-81
2021/11/14 01:25:47;;;;;;;12.20;6.33;;;10.50;99.90;;;;;;5116192;28;20277;-81
2021/11/14 01:28:14;;;;;;;10.60;6.00;;;10.60;99.90;;;;;;5116078;28;20285;-81
2021/11/14 01:30:45;;;;;;;11.00;6.87;;;10.60;99.90;;;;;;5108950;27;20577;-80
2021/11/14 01:33:14;;;;;;;9.67;6.33;;;10.60;99.90;;;;;;5115561;28;20308;-81
2021/11/14 01:35:42;;;;;;;8.57;5.80;;;10.60;99.90;;;;;;5108454;28;20266;-81
2021/11/14 01:38:09;;;;;;;8.20;5.77;;;10.60;99.90;;;;;;5115637;28;20314;-81
2021/11/14 01:40:39;;;;;;;9.27;5.43;;;10.50;99.90;;;;;;5122016;27;20225;-81
2021/11/14 01:43:08;;;;;;;8.50;5.20;;;10.50;99.90;;;;;;5115459;28;20229;-81
2021/11/14 01:45:36;;;;;;;7.90;5.40;;;10.50;99.90;;;;;;5114950;28;20285;-81
2021/11/14 01:48:05;;;;;;;9.63;5.30;;;10.60;99.90;;;;;;5115389;28;20941;-81
2021/11/14 01:50:34;;;;;;;8.37;5.30;;;10.50;99.90;;;;;;5114969;28;20284;-81
2021/11/14 01:53:01;;;;;;;10.50;5.20;;;10.50;99.90;;;;;;5114898;28;20308;-81
2021/11/14 01:55:30;;;;;;;10.97;5.43;;;10.50;99.90;;;;;;5114879;28;20620;-81
2021/11/14 01:57:58;;;;;;;10.37;5.23;;;10.50;99.90;;;;;;5114274;27;20288;-82
2021/11/14 02:00:30;;;;;;;10.30;5.60;;;10.50;99.90;;;;;;5113684;27;20376;-81
2021/11/14 02:02:58;;;;;;;9.93;5.37;;;10.50;99.90;;;;;;5112834;27;20228;-81
2021/11/14 02:05:29;;;;;;;7.73;5.00;;;10.60;99.90;;;;;;5124401;27;20221;-81
2021/11/14 02:07:59;;;;;;;6.80;5.00;;;10.50;99.90;;;;;;5115190;28;20232;-81
2021/11/14 02:10:28;;;;;;;9.70;5.37;;;10.50;99.90;;;;;;5115313;28;20252;-81
2021/11/14 02:12:56;;;;;;;10.20;5.00;;;10.50;99.90;;;;;;5114664;28;20257;-81
2021/11/14 02:15:24;;;;;;;7.33;4.90;;;10.40;99.90;;;;;;5114954;28;20304;-81
2021/11/14 02:17:51;;;;;;;9.23;5.10;;;10.40;99.90;;;;;;5098588;28;20760;-81
2021/11/14 02:20:21;;;;;;;7.70;4.93;;;10.50;99.90;;;;;;5114765;28;20283;-81
2021/11/14 02:22:48;;;;;;;9.53;5.03;;;10.40;99.90;;;;;;5119234;27;20292;-81
2021/11/14 02:25:17;;;;;;;9.63;5.00;;;10.40;99.90;;;;;;5118589;27;20202;-81
2021/11/14 02:27:47;;;;;;;7.33;5.20;;;10.40;99.90;;;;;;5114252;28;20229;-80
2021/11/14 02:30:16;;;;;;;10.13;5.67;;;10.40;99.90;;;;;;5115142;28;20240;-81
2021/11/14 02:32:43;;;;;;;9.43;5.10;;;10.40;99.90;;;;;;5114360;27;20214;-81
2021/11/14 02:35:11;;;;;;;9.73;5.13;;;10.40;99.90;;;;;;5113969;28;20293;-81
2021/11/14 02:37:40;;;;;;;8.80;5.37;;;10.40;99.90;;;;;;5113469;28;20214;-81
2021/11/14 02:40:13;;;;;;;8.97;5.27;;;10.40;99.90;;;;;;5114158;28;20244;-81
2021/11/14 02:42:41;;;;;;;8.80;5.07;;;10.40;99.90;;;;;;5114128;27;20204;-81
2021/11/14 02:45:10;;;;;;;8.90;5.37;;;10.40;99.90;;;;;;5113860;28;20233;-81
2021/11/14 02:47:38;;;;;;;10.27;5.40;;;10.40;99.90;;;;;;5113696;27;20233;-81
2021/11/14 02:50:07;;;;;;;8.90;5.20;;;10.30;99.90;;;;;;5113345;27;20236;-81
2021/11/14 02:52:34;;;;;;;6.97;4.90;;;10.40;99.90;;;;;;5113243;28;20221;-81
2021/11/14 02:55:03;;;;;;;8.17;4.57;;;10.40;99.90;;;;;;5113344;28;20289;-81
2021/11/14 02:57:30;;;;;;;6.77;5.30;;;10.30;99.90;;;;;;5114023;28;20266;-81
2021/11/14 02:59:57;;;;;;;7.50;5.17;;;10.40;99.90;;;;;;5113468;28;20284;-81
2021/11/14 03:02:24;;;;;;;8.50;5.50;;;10.40;99.90;;;;;;5112937;28;20634;-81
2021/11/14 03:04:51;;;;;;;9.40;5.80;;;10.40;99.90;;;;;;5114026;28;20233;-81
2021/11/14 03:07:19;;;;;;;9.67;5.83;;;10.40;99.90;;;;;;5113870;28;20219;-82
2021/11/14 03:09:46;;;;;;;10.13;5.60;;;10.30;99.90;;;;;;5113511;28;20649;-81
2021/11/14 03:12:14;;;;;;;7.27;4.70;;;10.40;99.90;;;;;;5112720;28;20300;-81
2021/11/14 03:14:41;;;;;;;7.30;4.90;;;10.40;99.90;;;;;;5113628;27;20301;-81
2021/11/14 03:17:08;;;;;;;7.17;4.80;;;10.40;99.90;;;;;;5112685;28;20771;-81
2021/11/14 03:19:35;;;;;;;7.77;5.37;;;10.40;99.90;;;;;;5113028;28;20228;-80
2021/11/14 03:22:02;;;;;;;8.17;4.73;;;10.40;99.90;;;;;;5124462;27;20374;-81
2021/11/14 03:24:29;;;;;;;11.17;5.17;;;10.30;99.90;;;;;;5101893;28;20641;-81
2021/11/14 03:26:55;;;;;;;8.03;4.77;;;10.30;99.90;;;;;;5112595;28;20229;-81
2021/11/14 03:29:24;;;;;;;9.33;5.03;;;10.30;99.90;;;;;;5111966;28;20221;-81
2021/11/14 03:31:51;;;;;;;7.57;4.90;;;10.30;99.90;;;;;;5113113;28;20233;-81
2021/11/14 03:34:18;;;;;;;6.63;5.03;;;10.30;99.90;;;;;;5113320;28;20347;-81
2021/11/14 03:36:45;;;;;;;7.33;5.27;;;10.30;99.90;;;;;;5112909;27;20276;-81
2021/11/14 03:39:12;;;;;;;8.23;4.80;;;10.30;99.90;;;;;;5112638;28;21067;-81
2021/11/14 03:41:42;;;;;;;8.70;5.27;;;10.30;99.90;;;;;;5112723;28;20276;-81
2021/11/14 03:44:11;;;;;;;7.47;4.60;;;10.30;99.90;;;;;;5112963;28;20232;-82
2021/11/14 03:46:40;;;;;;;10.43;5.00;;;10.30;99.90;;;;;;5111900;28;20714;-82
2021/11/14 03:49:07;;;;;;;6.10;5.10;;;10.30;99.90;;;;;;5113227;28;20237;-81
2021/11/14 03:51:35;;;;;;;8.77;4.70;;;10.20;99.90;;;;;;5112702;28;20218;-81
2021/11/14 03:54:03;;;;;;;7.83;4.67;;;10.20;99.90;;;;;;5112579;28;20253;-81
2021/11/14 03:56:33;;;;;;;6.00;4.40;;;10.20;99.90;;;;;;5111784;28;20206;-81
2021/11/14 03:59:00;;;;;;;7.80;4.43;;;10.20;99.90;;;;;;5119253;27;20204;-81
2021/11/14 04:01:28;;;;;;;6.70;4.97;;;10.30;99.90;;;;;;5122634;27;20296;-81
2021/11/14 04:03:57;;;;;;;7.53;4.30;;;10.30;99.90;;;;;;5112299;28;20218;-82
2021/11/14 04:06:24;;;;;;;4.67;4.00;;;10.30;99.90;;;;;;5112307;27;20288;-81
2021/11/14 04:08:53;;;;;;;8.00;4.10;;;10.30;99.90;;;;;;5112462;28;20613;-81
2021/11/14 04:11:20;;;;;;;6.37;3.90;;;10.30;99.90;;;;;;5113070;28;20242;-81
2021/11/14 04:13:47;;;;;;;8.57;4.20;;;10.20;99.90;;;;;;5112123;27;20304;-81
2021/11/14 04:16:14;;;;;;;7.07;3.80;;;10.30;99.90;;;;;;5111686;28;20285;-81
2021/11/14 04:18:41;;;;;;;5.73;3.53;;;10.30;99.90;;;;;;5111525;28;20308;-81
2021/11/14 04:21:10;;;;;;;4.63;3.80;;;10.30;99.90;;;;;;5111994;28;20309;-80
2021/11/14 04:23:38;;;;;;;5.33;3.60;;;10.30;99.90;;;;;;5112448;28;20285;-81
2021/11/14 04:26:06;;;;;;;5.17;3.57;;;10.30;99.90;;;;;;5111296;28;20193;-81
2021/11/14 04:28:35;;;;;;;6.43;3.47;;;10.30;99.90;;;;;;5111665;28;20288;-80
2021/11/14 04:31:02;;;;;;;6.10;3.17;;;10.30;99.90;;;;;;5110962;28;20205;-81
2021/11/14 04:33:29;;;;;;;6.17;3.50;;;10.30;99.90;;;;;;5112073;28;20304;-81
2021/11/14 04:35:56;;;;;;;6.97;3.40;;;10.30;99.90;;;;;;5112036;28;20284;-82
2021/11/14 04:38:24;;;;;;;7.43;3.13;;;10.30;99.90;;;;;;5111542;28;20212;-81
2021/11/14 04:40:51;;;;;;;8.33;3.87;;;10.30;99.90;;;;;;5111816;28;20229;-82
2021/11/14 04:43:19;;;;;;;5.53;3.13;;;10.40;99.90;;;;;;5112241;28;20277;-81
2021/11/14 04:45:47;;;;;;;5.27;3.43;;;10.30;99.90;;;;;;5110823;28;20280;-81
2021/11/14 04:48:14;;;;;;;5.40;3.33;;;10.30;99.90;;;;;;5111745;28;20247;-81
2021/11/14 04:50:41;;;;;;;4.33;3.10;;;10.40;99.90;;;;;;5112211;28;20237;-81
2021/11/14 04:53:08;;;;;;;6.17;3.80;;;10.30;99.90;;;;;;5110897;28;20313;-81
2021/11/14 04:55:37;;;;;;;5.83;3.80;;;10.30;99.90;;;;;;5111872;28;20201;-81
2021/11/14 04:58:06;;;;;;;7.43;3.53;;;10.30;99.90;;;;;;5111052;28;20228;-81
2021/11/14 05:00:37;;;;;;;6.57;3.57;;;10.40;99.90;;;;;;5110958;28;20248;-81
2021/11/14 05:03:05;;;;;;;6.37;3.57;;;10.30;99.90;;;;;;5111691;28;20749;-81
2021/11/14 05:05:32;;;;;;;4.97;3.70;;;10.30;99.90;;;;;;5112309;28;20206;-81
2021/11/14 05:07:59;;;;;;;5.93;3.33;;;10.30;99.90;;;;;;5111497;28;20194;-80
2021/11/14 05:10:26;;;;;;;6.03;3.37;;;10.40;99.90;;;;;;5112110;28;20230;-81
2021/11/14 05:12:54;;;;;;;3.83;3.23;;;10.30;99.90;;;;;;5114049;28;20253;-80
2021/11/14 05:15:21;;;;;;;5.10;2.97;;;10.30;99.90;;;;;;5117369;28;20264;-81
2021/11/14 05:17:48;;;;;;;7.10;3.20;;;10.30;99.90;;;;;;5111140;28;20317;-81
2021/11/14 05:20:15;;;;;;;7.33;3.60;;;10.30;99.90;;;;;;5111082;28;20233;-81
2021/11/14 05:22:42;;;;;;;6.53;4.20;;;10.20;99.90;;;;;;5111247;28;20233;-81
2021/11/14 05:25:10;;;;;;;6.47;3.50;;;10.20;99.90;;;;;;5111430;28;20686;-80
2021/11/14 05:27:37;;;;;;;6.70;3.60;;;10.20;99.90;;;;;;5110920;28;20281;-80
2021/11/14 05:30:08;;;;;;;6.47;3.50;;;10.20;99.90;;;;;;5111552;28;20237;-81
2021/11/14 05:32:36;;;;;;;5.40;3.40;;;10.20;99.90;;;;;;5103439;28;20197;-81
2021/11/14 05:35:05;;;;;;;7.00;3.53;;;10.20;99.90;;;;;;5117723;27;20292;-81
2021/11/14 05:37:32;;;;;;;6.50;3.60;;;10.20;99.90;;;;;;5114616;28;20614;-81
2021/11/14 05:39:59;;;;;;;6.93;3.50;;;10.20;99.90;;;;;;5115541;28;20767;-82
2021/11/14 05:42:26;;;;;;;3.80;3.00;;;10.30;99.90;;;;;;5115121;28;20229;-81
2021/11/14 05:45:08;;;;;;;7.57;3.90;;;10.30;99.90;;;;;;5115146;28;20728;-81
2021/11/14 05:47:35;;;;;;;7.13;3.90;;;10.20;99.90;;;;;;5114727;28;20292;-81
2021/11/14 05:50:02;;;;;;;8.37;3.23;;;10.20;99.90;;;;;;5114974;28;20233;-81
2021/11/14 05:52:28;;;;;;;6.63;3.53;;;10.20;99.90;;;;;;5114995;28;20252;-81
2021/11/14 05:54:55;;;;;;;5.03;3.50;;;10.20;99.90;;;;;;5115147;27;20244;-81
2021/11/14 05:57:22;;;;;;;7.03;4.03;;;10.30;99.90;;;;;;5114335;28;20277;-81
2021/11/14 05:59:56;;;;;;;5.33;3.93;;;10.30;99.90;;;;;;5114965;28;20202;-81
2021/11/14 06:02:35;;;;;;;7.07;3.77;;;10.30;99.90;;;;;;5115017;28;20201;-81
2021/11/14 06:05:11;;;;;;;4.90;3.63;;;10.30;99.90;;;;;;5114812;27;20250;-81
2021/11/14 06:07:38;;;;;;;6.53;3.80;;;10.20;99.90;;;;;;5114992;28;20205;-80
2021/11/14 06:10:06;;;;;;;6.43;3.60;;;10.20;99.90;;;;;;5114605;28;20240;-81
2021/11/14 06:12:34;;;;;;;6.53;3.97;;;10.20;99.90;;;;;;5094456;28;20209;-81
2021/11/14 06:15:01;;;;;;;6.43;3.60;;;10.20;99.90;;;;;;5094633;27;20701;-80
2021/11/14 06:17:30;;;;;;;6.40;3.77;;;10.20;99.90;;;;;;5113736;28;20320;-80
2021/11/14 06:19:57;;;;;;;5.43;3.73;;;10.20;99.90;;;;;;5114142;28;20236;-81
2021/11/14 06:22:23;;;;;;;6.27;3.60;;;10.20;99.90;;;;;;5115015;28;20229;-81
2021/11/14 06:24:50;;;;;;;6.20;3.77;;;10.10;99.90;;;;;;5114629;28;20229;-81
2021/11/14 06:27:18;;;;;;;5.40;3.40;;;10.10;99.90;;;;;;5114559;28;20247;-80
2021/11/14 06:29:45;;;;;;;8.03;4.07;;;10.10;99.90;;;;;;5114227;28;20233;-81
2021/11/14 06:32:12;;;;;;;7.13;4.33;;;10.10;99.90;;;;;;5114547;28;20708;-81
2021/11/14 06:34:40;;;;;;;5.90;3.83;;;10.10;99.90;;;;;;5113457;28;20309;-81
2021/11/14 06:37:07;;;;;;;6.67;4.07;;;10.10;99.90;;;;;;5113634;28;20222;-81
2021/11/14 06:39:36;;;;;;;6.27;4.30;;;10.10;99.90;;;;;;5113747;28;20737;-81
2021/11/14 06:42:03;;;;;;;5.50;4.00;;;10.10;99.90;;;;;;5113609;28;20242;-81
2021/11/14 06:44:30;;;;;;;6.63;4.00;;;10.10;99.90;;;;;;5113440;28;20193;-80
2021/11/14 06:46:57;;;;;;;6.93;4.00;;;10.10;99.90;;;;;;5113879;28;20280;-81
2021/11/14 06:49:24;;;;;;;6.57;4.40;;;10.00;99.90;;;;;;5117613;27;20280;-81
2021/11/14 06:51:53;;;;;;;7.57;4.07;;;10.00;99.90;;;;;;5116258;27;20300;-81
2021/11/14 06:54:20;;;;;;;6.10;4.23;;;10.10;99.90;;;;;;5112542;28;20300;-81
2021/11/14 06:56:47;;;;;;;9.10;4.20;;;10.00;99.90;;;;;;5114114;28;20292;-80
2021/11/14 06:59:14;;;;;;;9.47;4.60;;;10.00;99.90;;;;;;5120605;27;20229;-81
2021/11/14 07:01:41;;;;;;;8.47;4.80;;;10.00;99.90;;;;;;5113941;28;20287;-81
2021/11/14 07:04:08;;;;;;;9.17;4.50;;;10.00;99.90;;;;;;5113380;28;20228;-81
2021/11/14 07:06:36;;;;;;;8.23;4.50;;;9.90;99.90;;;;;;5113172;27;20284;-81
2021/11/14 07:09:07;;;;;;;7.47;4.27;;;10.00;99.90;;;;;;5112911;28;20206;-81
2021/11/14 07:11:34;;;;;;;6.33;4.53;;;10.00;99.90;;;;;;5113553;28;20203;-81
2021/11/14 07:14:01;;;;;;;6.60;3.97;;;10.00;99.90;;;;;;5114132;27;20228;-80
2021/11/14 07:16:28;;;;;;;6.37;4.03;;;10.00;99.90;;;;;;5119786;27;20249;-81
2021/11/14 07:18:55;;;;;;;7.30;4.30;;;10.00;99.90;;;;;;5113202;28;20273;-81
2021/11/14 07:21:23;;;;;;;7.63;4.60;;;10.00;99.90;;;;;;5101436;28;20210;-81
2021/11/14 07:23:49;;;;;;;11.20;5.27;;;10.00;99.90;;;;;;5108132;28;20627;-81
2021/11/14 07:26:18;;;;;;;8.07;4.40;;;10.10;99.90;;;;;;5113021;27;20288;-81
2021/11/14 07:28:45;;;;;;;9.77;5.07;;;10.10;99.90;;;;;;5113480;28;20190;-82
2021/11/14 07:31:12;;;;;;;7.10;4.23;;;10.10;99.90;;;;;;5112901;28;20194;-82
2021/11/14 07:33:39;;;;;;;8.93;4.60;;;10.10;99.90;;;;;;5112988;27;20308;-81
2021/11/14 07:36:06;;;;;;;7.40;4.37;;;10.10;99.90;;;;;;5112282;28;20759;-81
2021/11/14 07:38:33;;;;;;;8.30;4.53;;;10.10;99.90;;;;;;5112565;28;20281;-82
2021/11/14 07:41:00;;;;;;;7.30;4.97;;;10.10;99.90;;;;;;5113081;28;20221;-81
2021/11/14 07:43:29;;;;;;;8.90;4.50;;;10.20;99.90;;;;;;5113032;28;20236;-81
2021/11/14 07:45:56;;;;;;;9.67;4.90;;;10.20;99.90;;;;;;5113402;28;20202;-80
2021/11/14 07:48:23;;;;;;;7.07;4.60;;;10.20;99.90;;;;;;5112075;28;20248;-81
2021/11/14 07:50:53;;;;;;;7.30;4.73;;;10.20;99.90;;;;;;5111996;28;20282;-80
2021/11/14 07:53:20;;;;;;;8.60;4.77;;;10.20;99.90;;;;;;5111951;27;20220;-80
2021/11/14 07:55:47;;;;;;;6.90;4.57;;;10.30;99.90;;;;;;5112232;28;20225;-80
2021/11/14 07:58:14;;;;;;;6.87;4.60;;;10.30;99.90;;;;;;5112290;28;20225;-80
2021/11/14 08:00:42;;;;;;;8.33;4.90;;;10.30;99.90;;;;;;5116423;27;20276;-80
2021/11/14 08:03:10;;;;;;;7.47;4.47;;;10.40;99.90;;;;;;5125456;27;20293;-81
2021/11/14 08:05:37;;;;;;;6.43;4.57;;;10.50;99.90;;;;;;5111588;28;20194;-79
2021/11/14 08:08:05;;;;;;;8.67;4.40;;;10.40;99.90;;;;;;5112747;28;20232;-80
2021/11/14 08:10:33;;;;;;;8.43;4.23;;;10.60;99.90;;;;;;5112268;27;20281;-80
2021/11/14 08:13:00;;;;;;;6.87;4.30;;;10.50;99.90;;;;;;5113046;28;20198;-82
2021/11/14 08:15:29;;;;;;;7.23;4.23;;;10.50;99.90;;;;;;5112932;28;20369;-81
2021/11/14 08:17:57;;;;;;;8.57;4.93;;;10.50;99.90;;;;;;5112779;28;20652;-80
2021/11/14 08:20:25;;;;;;;7.23;4.30;;;10.60;99.90;;;;;;5113033;28;20288;-81
2021/11/14 08:22:52;;;;;;;6.97;4.27;;;10.60;99.90;;;;;;5112243;28;20284;-81
2021/11/14 08:25:20;;;;;;;7.63;4.30;;;10.60;99.90;;;;;;5114256;28;20236;-82
2021/11/14 08:27:47;;;;;;;6.47;4.13;;;10.70;99.90;;;;;;5113702;27;20573;-80
2021/11/14 08:30:16;;;;;;;10.43;4.27;;;10.70;99.90;;;;;;5112729;28;20212;-83
2021/11/14 08:32:43;;;;;;;7.03;4.10;;;10.70;99.90;;;;;;5112432;28;20629;-82
2021/11/14 08:35:12;;;;;;;7.03;4.77;;;10.90;99.90;;;;;;5112958;28;20274;-82
2021/11/14 08:37:39;;;;;;;8.57;4.27;;;10.80;99.90;;;;;;5112375;28;20233;-82
2021/11/14 08:40:08;;;;;;;6.57;3.90;;;10.90;99.90;;;;;;5111804;28;20284;-82
2021/11/14 08:42:36;;;;;;;7.53;4.20;;;10.90;99.90;;;;;;5112061;28;20294;-82
2021/11/14 08:45:04;;;;;;;5.67;3.97;;;11.00;99.90;;;;;;5111775;28;20225;-82
2021/11/14 08:47:31;;;;;;;6.10;4.03;;;11.00;99.90;;;;;;5112248;28;20198;-82
2021/11/14 08:49:59;;;;;;;5.47;3.97;;;11.00;99.90;;;;;;5108550;28;20284;-82
2021/11/14 08:52:27;;;;;;;8.57;4.07;;;11.10;99.90;;;;;;5115021;28;20284;-82
2021/11/14 08:54:54;;;;;;;5.93;3.40;;;11.10;99.90;;;;;;5111670;28;20253;-82
2021/11/14 08:57:21;;;;;;;6.10;3.63;;;11.20;99.90;;;;;;5112041;28;20764;-81
2021/11/14 08:59:49;;;;;;;4.53;3.57;;;11.20;99.90;;;;;;5111644;28;20220;-82
2021/11/14 09:02:17;;;;;;;5.27;3.87;;;11.20;99.90;;;;;;5112083;28;20194;-82
2021/11/14 09:04:44;;;;;;;5.33;4.23;;;11.20;99.90;;;;;;5112334;28;20230;-82
2021/11/14 09:07:11;;;;;;;7.80;3.80;;;11.20;99.90;;;;;;5112505;28;20279;-82
2021/11/14 09:09:39;;;;;;;7.97;4.40;;;11.30;99.90;;;;;;5122591;27;20235;-82
2021/11/14 09:12:07;;;;;;;5.37;3.90;;;11.40;99.90;;;;;;5115954;28;20403;-82
2021/11/14 09:14:34;;;;;;;5.37;3.57;;;11.40;99.90;;;;;;5116041;28;20225;-81
2021/11/14 09:17:01;;;;;;;6.87;3.60;;;11.40;99.90;;;;;;5115545;28;20701;-82
2021/11/14 09:19:28;;;;;;;5.77;3.67;;;11.50;99.90;;;;;;5115110;28;20657;-82
2021/11/14 09:21:55;;;;;;;5.73;3.47;;;11.60;99.90;;;;;;5115062;27;20281;-83
2021/11/14 09:24:22;;;;;;;7.73;3.23;;;11.70;99.90;;;;;;5114870;28;20214;-83
2021/11/14 09:26:51;;;;;;;7.80;3.60;;;11.70;99.90;;;;;;5117552;27;20198;-83
2021/11/14 09:29:17;;;;;;;7.00;3.57;;;11.80;99.90;;;;;;5115510;28;20240;-83
2021/11/14 09:31:45;;;;;;;6.30;3.57;;;11.90;99.90;;;;;;5105179;27;20218;-83
2021/11/14 09:34:20;;;;;;;6.63;3.13;;;12.00;99.90;;;;;;5089812;28;20217;-83
2021/11/14 09:36:47;;;;;;;5.40;3.53;;;12.10;99.90;;;;;;5109633;28;20745;-83
2021/11/14 09:39:15;;;;;;;6.57;4.40;;;12.20;99.90;;;;;;5114964;28;20288;-83
2021/11/14 09:41:44;;;;;;;5.53;3.53;;;12.30;99.90;;;;;;5114953;28;20250;-82
2021/11/14 09:44:15;;;;;;;7.53;3.63;;;12.40;99.90;;;;;;5115431;28;20708;-83
2021/11/14 09:46:48;;;;;;;7.33;3.70;;;12.40;99.90;;;;;;5115482;28;20233;-83
2021/11/14 09:49:16;;;;;;;6.70;3.80;;;12.40;99.90;;;;;;5115219;27;20198;-83
2021/11/14 09:51:43;;;;;;;5.87;3.57;;;12.40;99.90;;;;;;5115243;28;20632;-83
2021/11/14 09:54:10;;;;;;;6.60;3.60;;;12.50;99.90;;;;;;5116465;27;20305;-84
2021/11/14 09:56:39;;;;;;;5.87;3.47;;;12.50;99.90;;;;;;5123528;27;20197;-83
2021/11/14 09:59:06;;;;;;;6.30;3.00;;;12.70;99.90;;;;;;5112760;28;20285;-83
2021/11/14 10:01:35;;;;;;;7.07;3.43;;;12.70;99.90;;;;;;5116031;27;20221;-83
2021/11/14 10:04:02;;;;;;;5.30;3.23;;;12.70;99.90;;;;;;5095324;27;20257;-84
2021/11/14 10:06:29;;;;;;;5.73;3.47;;;;;;;;;;5119337;27;20221;-83
2021/11/14 10:08:56;;;;;;;4.87;2.90;;;;;;;;;;5120582;27;20236;-83
2021/11/14 10:11:32;;;;;;;4.47;3.00;;;;;;;;;;5113719;28;20227;-83
2021/11/14 10:13:59;;;;;;;5.83;2.90;;;;;;;;;;5112511;27;20221;-82
2021/11/14 10:16:28;;;;;;;5.87;2.90;;;;;;;;;;5121122;27;20614;-82
2021/11/14 10:18:58;;;;;;;6.90;2.70;;;;;;;;;;5112378;28;20234;-83
2021/11/14 10:21:26;;;;;;;4.63;2.67;;;;;;;;;;5112469;28;20194;-82
2021/11/14 10:23:53;;;;;;;4.10;2.53;;;;;;;;;;5113645;28;20251;-83
2021/11/14 10:26:21;;;;;;;5.83;2.83;;;;;;;;;;5113322;28;20232;-83
2021/11/14 10:28:48;;;;;;;4.77;2.80;;;;;;;;;;5113858;28;20287;-82
2021/11/14 10:31:32;;;;;;;3.70;2.60;;;;;;;;;;5113201;28;20219;-82
2021/11/14 10:34:02;;;;;;;5.83;2.70;;;;;;;;;;5110918;28;20242;-84
2021/11/14 10:36:30;;;;;;;4.07;3.10;;;;;;;;;;5113195;28;20240;-83
2021/11/14 10:39:01;;;;;;;6.57;2.93;;;;;;;;;;5108020;28;20213;-83
2021/11/14 10:41:28;;;;;;;4.43;2.77;;;;;;;;;;5098484;28;20247;-82
2021/11/14 10:44:04;;;;;;;4.70;2.43;;;;;;;;;;5111029;28;20631;-83
2021/11/14 10:46:36;;;;;;;3.90;2.53;;;;;;;;;;5110237;28;20201;-82
2021/11/14 10:49:06;;;;;;;6.20;2.80;;;;;;;;;;5112915;28;20243;-83
2021/11/14 10:51:34;;;;;;;4.30;2.60;;;;;;;;;;5110237;27;20294;-82
2021/11/14 10:54:01;;;;;;;5.00;2.80;;;;;;;;;;5110647;27;20236;-81
2021/11/14 10:56:29;;;;;;;6.57;2.73;;;;;;;;;;5108993;27;20249;-81
2021/11/14 10:58:56;;;;;;;3.40;2.60;;;;;;;;;;5106186;28;20285;-81
2021/11/14 11:01:24;;;;;;;5.30;2.43;;;;;;;;;;5105914;28;20233;-82
2021/11/14 11:03:52;;;;;;;3.77;2.40;;;;;;;;;;5109489;27;20260;-80
2021/11/14 11:06:22;;;;;;;3.40;2.20;;;;;;;;;;5114086;28;20284;-81
2021/11/14 11:08:50;;;;;;;3.30;2.37;;;;;;;;;;5112086;27;20197;-82
2021/11/14 11:11:21;;;;;;;4.80;2.10;;;;;;;;;;5113506;27;20284;-82
2021/11/14 11:13:49;;;;;;;4.93;2.60;;;;;;;;;;5113838;27;20328;-80
2021/11/14 11:16:17;;;;;;;21.13;16.13;;;;;;;;;;5111455;28;20245;-80
2021/11/14 11:18:45;;;;;;;17.40;13.13;;;;;;;;;;5109682;28;20268;-81
2021/11/14 11:21:12;;;;;;;6.73;5.40;;;;;;;;;;5111367;28;20277;-80
2021/11/14 11:23:45;;;;;;;5.77;3.30;;;;;;;;;;5102895;28;20285;-81
2021/11/14 11:26:13;;;;;;;4.60;4.00;;;;;;;;;;5104897;27;20209;-81
2021/11/14 11:28:42;;;;;;;7.63;4.30;;;;;;;;;;5115966;27;20194;-81
2021/11/14 11:31:10;;;;;;;5.40;4.53;;;;;;;;;;5114711;27;20304;-81
2021/11/14 11:33:39;;;;;;;7.73;6.57;;;;;;;;;;5109598;27;20679;-81
2021/11/14 11:36:08;;;;;;;6.43;4.37;;;;;;;;;;5110214;28;20320;-82
2021/11/14 11:38:35;;;;;;;20.03;12.90;;;;;;;;;;5112019;28;20266;-84
2021/11/14 11:41:04;;;;;;;8.70;5.63;;;;;;;;;;5112193;28;20219;-83
2021/11/14 11:43:32;;;;;;;15.00;9.47;;;;;;;;;;5115519;27;20237;-82
2021/11/14 11:46:02;;;;;;;13.87;10.20;;;;;;;;;;5113679;27;20251;-82
2021/11/14 11:48:31;;;;;;;21.30;15.63;;;;;;;;;;5110324;28;20244;-82
2021/11/14 11:51:06;;;;;;;11.97;9.23;;;;;;;;;;5111766;28;20320;-81
2021/11/14 11:53:33;;;;;;;17.40;15.50;;;;;;;;;;5116828;27;20217;-82
2021/11/14 11:56:02;;;;;;;5.20;3.53;;;;;;;;;;5106134;27;20233;-80
2021/11/14 11:58:37;;;;;;;7.17;4.63;;;;;;;;;;5113216;27;20288;-80
2021/11/14 12:01:05;;;;;;;17.03;11.67;;;;;;;;;;5110512;27;20212;-82
2021/11/14 12:03:35;;;;;;;6.67;4.60;;;;;;;;;;5112290;28;20229;-81
2021/11/14 12:06:02;;;;;;;9.10;6.37;;;;;;;;;;5111009;28;20202;-83
2021/11/14 12:08:43;;;;;;;4.60;3.13;;;;;;;;;;5108457;28;20221;-82
2021/11/14 12:11:11;;;;;;;5.03;3.37;;;;;;;;;;5112311;27;20233;-82
2021/11/14 12:13:44;;;;;;;6.20;4.00;;;;;;;;;;5114710;27;20197;-82
2021/11/14 12:16:12;;;;;;;15.70;10.67;;;;;;;;;;5103369;28;20247;-82
2021/11/14 12:18:40;;;;;;;21.53;14.70;;;;;;;;;;5125656;27;20275;-82
2021/11/14 12:21:16;;;;;;;7.07;5.20;;;;;;;;;;5112316;28;20225;-82
2021/11/14 12:23:50;;;;;;;31.60;25.53;;;;;;;;;;5113129;28;20193;-82
2021/11/14 12:26:24;;;;;;;5.73;3.23;;;;;;;;;;5112599;28;20224;-82
2021/11/14 12:28:55;;;;;;;55.93;36.57;;;;;;;;;;5113416;28;20225;-84
2021/11/14 12:31:25;;;;;;;11.03;7.97;;;;;;;;;;5112134;28;20198;-80
2021/11/14 12:33:53;;;;;;;4.60;3.17;;;;;;;;;;5111756;28;20197;-81
2021/11/14 12:36:21;;;;;;;4.23;3.47;;;;;;;;;;5114511;28;20225;-80
2021/11/14 12:38:49;;;;;;;3.93;2.30;;;;;;;;;;5109049;28;20210;-80
2021/11/14 12:41:17;;;;;;;5.70;2.87;;;;;;;;;;5105322;28;20281;-80
2021/11/14 12:43:46;;;;;;;4.13;2.20;;;;;;;;;;5106793;28;20206;-81
2021/11/14 12:46:15;;;;;;;2.83;2.00;;;;;;;;;;5107572;28;20573;-80
2021/11/14 12:48:44;;;;;;;3.93;1.77;;;;;;;;;;5109001;28;20221;-81
2021/11/14 12:51:14;;;;;;;3.87;2.23;;;;;;;;;;5110940;28;20198;-81
2021/11/14 12:53:49;;;;;;;5.83;2.30;;;;;;;;;;5105645;28;20281;-81
2021/11/14 12:56:16;;;;;;;2.87;1.83;;;;;;;;;;5108134;28;20248;-81
2021/11/14 12:58:43;;;;;;;4.87;2.10;;;;;;;;;;5106293;28;20233;-80
2021/11/14 13:01:12;;;;;;;2.33;1.63;;;;;;;;;;5103270;28;20277;-81
2021/11/14 13:03:43;;;;;;;3.70;2.00;;;;;;;;;;5111633;28;20225;-80
2021/11/14 13:06:17;;;;;;;4.23;2.20;;;;;;;;;;5108601;28;20223;-81
2021/11/14 13:08:44;;;;;;;4.80;2.47;;;;;;;;;;5108213;28;20200;-81
2021/11/14 13:11:20;;;;;;;4.73;3.53;;;;;;;;;;5097813;28;20198;-80
2021/11/14 13:13:49;;;;;;;4.23;1.97;;;;;;;;;;5111491;28;20201;-80
2021/11/14 13:16:20;;;;;;;3.80;1.70;;;;;;;;;;5109981;28;20275;-81